createdAt,value
2022-09-20T00:01:28.365Z,98068.22
2022-09-20T00:04:31.629Z,98071.91
2022-09-20T00:07:35.831Z,98081.72
2022-09-20T00:10:39.478Z,98074.38
2022-09-20T00:13:44.821Z,98072.50
2022-09-20T00:16:47.676Z,98078.13
2022-09-20T00:19:50.566Z,98075.66
2022-09-20T00:22:54.761Z,98073.47
2022-09-20T00:25:58.975Z,98075.28
2022-09-20T00:29:02.121Z,98077.25
2022-09-20T00:32:05.468Z,98079.19
2022-09-20T00:35:10.871Z,98080.81
2022-09-20T00:38:16.030Z,98075.75
2022-09-20T00:41:18.884Z,98080.38
2022-09-20T00:44:46.006Z,98073.66
2022-09-20T00:47:51.886Z,98074.25
2022-09-20T00:51:00.759Z,98065.38
2022-09-20T00:54:06.930Z,98073.94
2022-09-20T00:57:09.948Z,98075.88
2022-09-20T01:00:14.362Z,98071.94
2022-09-20T01:03:23.087Z,98071.53
2022-09-20T01:06:26.107Z,98071.84
2022-09-20T01:09:30.456Z,98074.16
2022-09-20T01:12:36.557Z,98069.63
2022-09-20T01:15:41.629Z,98070.88
2022-09-20T01:18:47.144Z,98072.69
2022-09-20T01:21:50.171Z,98073.13
2022-09-20T01:25:00.910Z,98063.91
2022-09-20T01:28:05.461Z,98067.81
2022-09-20T01:31:11.659Z,98066.00
2022-09-20T01:34:17.379Z,98069.47
2022-09-20T01:37:27.000Z,98068.78
2022-09-20T01:40:37.578Z,98067.66
2022-09-20T01:43:49.708Z,98064.81
2022-09-20T01:47:01.510Z,98076.50
2022-09-20T01:50:13.218Z,98072.41
2022-09-20T01:53:46.129Z,98074.72
2022-09-20T01:57:30.788Z,98076.03
2022-09-20T02:00:47.865Z,98079.28
2022-09-20T02:04:24.487Z,98071.41
2022-09-20T02:07:54.448Z,98073.38
2022-09-20T02:11:17.429Z,98071.56
2022-09-20T02:14:33.360Z,98076.94
2022-09-20T02:17:49.591Z,98075.28
2022-09-20T02:20:57.998Z,98077.41
2022-09-20T02:24:12.332Z,98074.78
2022-09-20T02:27:24.740Z,98082.72
2022-09-20T02:30:43.344Z,98080.84
2022-09-20T02:34:16.559Z,98082.19
2022-09-20T02:37:50.930Z,98086.63
2022-09-20T02:41:13.022Z,98085.78
2022-09-20T02:44:23.735Z,98090.25
2022-09-20T02:47:34.399Z,98094.63
2022-09-20T02:50:46.699Z,98096.28
2022-09-20T02:53:57.097Z,98096.28
2022-09-20T02:57:05.392Z,98101.84
2022-09-20T03:00:14.190Z,98095.16
2022-09-20T03:03:25.001Z,98096.00
2022-09-20T03:06:41.661Z,98097.25
2022-09-20T03:09:50.153Z,98093.03
2022-09-20T03:13:09.057Z,98096.34
2022-09-20T03:16:23.904Z,98096.34
2022-09-20T03:19:39.796Z,98093.84
2022-09-20T03:22:55.815Z,98096.34
2022-09-20T03:26:11.617Z,98100.75
2022-09-20T03:29:28.211Z,98097.44
2022-09-20T03:32:45.564Z,98096.66
2022-09-20T03:36:08.720Z,98095.94
2022-09-20T03:39:41.497Z,98099.72
2022-09-20T03:42:49.726Z,98099.03
2022-09-20T03:46:11.474Z,98106.22
2022-09-20T03:49:52.784Z,98111.31
2022-09-20T03:53:19.826Z,98109.13
2022-09-20T03:57:04.203Z,98108.03
2022-09-20T04:00:23.563Z,98108.06
2022-09-20T04:03:37.424Z,98109.44
2022-09-20T04:07:01.798Z,98113.63
2022-09-20T04:10:17.672Z,98110.84
2022-09-20T04:13:32.011Z,98111.84
2022-09-20T04:16:44.259Z,98111.38
2022-09-20T04:19:53.137Z,98112.19
2022-09-20T04:22:59.296Z,98111.97
2022-09-20T04:26:04.345Z,98115.94
2022-09-20T04:29:20.996Z,98113.84
2022-09-20T04:32:31.857Z,98112.06
2022-09-20T04:36:02.285Z,98118.78
2022-09-20T04:39:16.830Z,98122.13
2022-09-20T04:42:55.852Z,98125.84
2022-09-20T04:46:19.962Z,98120.75
2022-09-20T04:49:52.070Z,98124.34
2022-09-20T04:53:17.328Z,98129.81
2022-09-20T04:56:38.213Z,98134.94
2022-09-20T04:59:56.522Z,98139.06
2022-09-20T05:03:37.140Z,98130.41
2022-09-20T05:07:11.858Z,98135.38
2022-09-20T05:11:02.530Z,98150.66
2022-09-20T05:14:24.880Z,98132.44
2022-09-20T05:17:39.442Z,98136.34
2022-09-20T05:21:08.840Z,98144.75
2022-09-20T05:24:43.381Z,98149.06
2022-09-20T05:27:53.715Z,98144.78
2022-09-20T05:31:01.001Z,98145.38
2022-09-20T05:34:16.514Z,98143.13
2022-09-20T05:37:33.264Z,98135.66
2022-09-20T05:40:55.609Z,98141.72
2022-09-20T05:44:09.526Z,98145.84
2022-09-20T05:47:20.378Z,98153.28
2022-09-20T05:50:40.369Z,98154.41
2022-09-20T05:54:09.935Z,98157.13
2022-09-20T05:57:29.157Z,98150.53
2022-09-20T06:00:38.599Z,98159.66
2022-09-20T06:03:45.592Z,98158.66
2022-09-20T06:06:58.672Z,98158.47
2022-09-20T06:10:31.137Z,98161.69
2022-09-20T06:13:46.397Z,98161.16
2022-09-20T06:16:58.884Z,98165.00
2022-09-20T06:20:14.455Z,98167.25
2022-09-20T06:23:18.387Z,98171.50
2022-09-20T06:26:25.114Z,98169.13
2022-09-20T06:29:33.262Z,98172.56
2022-09-20T06:32:36.186Z,98180.44
2022-09-20T06:35:44.639Z,98180.59
2022-09-20T06:39:17.078Z,98176.16
2022-09-20T06:42:22.431Z,98178.78
2022-09-20T06:45:29.168Z,98183.34
2022-09-20T06:48:32.218Z,98185.53
2022-09-20T06:51:37.555Z,98185.53
2022-09-20T06:54:43.567Z,98182.19
2022-09-20T06:57:46.991Z,98186.19
2022-09-20T07:00:51.283Z,98184.94
2022-09-20T07:03:54.171Z,98174.44
2022-09-20T07:07:01.181Z,98176.31
2022-09-20T07:10:04.205Z,98169.81
2022-09-20T07:13:07.001Z,98172.34
2022-09-20T07:16:13.689Z,98171.97
2022-09-20T07:19:16.669Z,98180.88
2022-09-20T07:22:19.641Z,98183.16
2022-09-20T07:25:22.885Z,98187.66
2022-09-20T07:28:26.199Z,98190.72
2022-09-20T07:31:31.138Z,98195.03
2022-09-20T07:34:34.010Z,98204.38
2022-09-20T07:37:37.401Z,98213.31
2022-09-20T07:40:40.284Z,98224.50
2022-09-20T07:43:43.088Z,98226.81
2022-09-20T07:46:49.009Z,98223.91
2022-09-20T07:49:53.065Z,98224.72
2022-09-20T07:52:58.003Z,98226.75
2022-09-20T07:56:01.864Z,98225.69
2022-09-20T07:59:04.810Z,98220.81
2022-09-20T08:02:14.941Z,98217.69
2022-09-20T08:05:17.972Z,98214.06
2022-09-20T08:08:21.013Z,98198.84
2022-09-20T08:11:28.784Z,98185.84
2022-09-20T08:14:31.799Z,98169.47
2022-09-20T08:17:35.944Z,98162.84
2022-09-20T08:20:39.418Z,98149.91
2022-09-20T08:23:43.916Z,98151.47
2022-09-20T08:26:46.687Z,98142.91
2022-09-20T08:29:50.085Z,98136.03
2022-09-20T08:32:55.823Z,98128.88
2022-09-20T08:35:59.098Z,98120.41
2022-09-20T08:42:33.615Z,98100.41
2022-09-20T08:45:39.303Z,98084.16
2022-09-20T08:48:44.335Z,98087.47
2022-09-20T08:51:50.611Z,98065.13
2022-09-20T08:54:53.568Z,98068.72
2022-09-20T08:57:58.414Z,98051.81
2022-09-20T09:01:01.562Z,98050.94
2022-09-20T09:04:14.128Z,98032.91
2022-09-20T09:07:19.808Z,98001.31
2022-09-20T09:10:23.213Z,97972.19
2022-09-20T09:13:30.133Z,97947.03
2022-09-20T09:16:36.433Z,97927.81
2022-09-20T09:19:49.793Z,97909.41
2022-09-20T09:23:01.017Z,97887.53
2022-09-20T09:26:06.451Z,97878.34
2022-09-20T09:29:15.262Z,97881.00
2022-09-20T09:32:24.727Z,97864.69
2022-09-20T09:35:31.753Z,97863.41
2022-09-20T09:38:36.654Z,97856.47
2022-09-20T09:41:39.554Z,97833.78
2022-09-20T09:44:42.480Z,97803.38
2022-09-20T09:47:46.660Z,97776.56
2022-09-20T09:50:51.011Z,97768.03
2022-09-20T09:53:55.177Z,97749.59
2022-09-20T09:57:24.511Z,97747.47
2022-09-20T10:00:28.922Z,97723.59
2022-09-20T10:03:41.701Z,97696.50
2022-09-20T10:06:54.580Z,97683.34
2022-09-20T10:10:07.727Z,97662.91
2022-09-20T10:13:20.094Z,97654.63
2022-09-20T10:16:32.221Z,97659.91
2022-09-20T10:19:51.337Z,97659.81
2022-09-20T10:26:45.130Z,97692.97
2022-09-20T10:30:01.836Z,97740.63
2022-09-20T10:33:16.119Z,97793.53
2022-09-20T10:36:28.871Z,97832.16
2022-09-20T10:39:36.328Z,97861.41
2022-09-20T10:43:04.792Z,97891.69
2022-09-20T10:46:31.724Z,97903.38
2022-09-20T10:49:43.652Z,97904.34
2022-09-20T10:53:04.638Z,97903.47
2022-09-20T10:56:26.480Z,97898.19
2022-09-20T10:59:40.610Z,97867.00
2022-09-20T11:02:54.465Z,97858.94
2022-09-20T11:06:11.017Z,97847.25
2022-09-20T11:09:19.441Z,97846.41
2022-09-20T11:12:30.079Z,97848.69
2022-09-20T11:15:41.719Z,97852.75
2022-09-20T11:18:50.876Z,97842.91
2022-09-20T11:21:59.844Z,97842.41
2022-09-20T11:25:16.746Z,97832.69
2022-09-20T11:28:30.527Z,97837.47
2022-09-20T11:31:40.252Z,97817.75
2022-09-20T11:34:53.587Z,97789.59
2022-09-20T11:38:07.790Z,97781.09
2022-09-20T11:41:15.456Z,97754.00
2022-09-20T11:44:21.056Z,97705.72
2022-09-20T11:47:50.314Z,97665.97
2022-09-20T11:51:35.624Z,97649.53
2022-09-20T11:55:08.512Z,97633.59
2022-09-20T11:58:15.989Z,97640.31
2022-09-20T12:01:28.743Z,97634.38
2022-09-20T12:04:35.774Z,97635.44
2022-09-20T12:07:41.571Z,97634.44
2022-09-20T12:10:54.305Z,97630.03
2022-09-20T12:14:04.008Z,97618.06
2022-09-20T12:17:49.148Z,97610.91
2022-09-20T12:21:15.600Z,97616.53
2022-09-20T12:24:23.509Z,97635.75
2022-09-20T12:27:57.873Z,97636.91
2022-09-20T12:31:34.248Z,97628.56
2022-09-20T12:34:39.403Z,97628.63
2022-09-20T12:37:42.331Z,97631.69
2022-09-20T12:41:00.011Z,97636.13
2022-09-20T12:44:26.926Z,97634.41
2022-09-20T12:47:33.538Z,97634.28
2022-09-20T12:50:55.346Z,97643.66
2022-09-20T12:54:07.811Z,97645.28
2022-09-20T12:57:19.197Z,97654.34
2022-09-20T13:00:33.618Z,97659.56
2022-09-20T13:03:37.929Z,97658.84
2022-09-20T13:06:42.492Z,97657.75
2022-09-20T13:09:45.746Z,97658.50
2022-09-20T13:12:54.438Z,97648.63
2022-09-20T13:15:59.271Z,97642.47
2022-09-20T13:19:05.633Z,97621.28
2022-09-20T13:22:13.195Z,97629.91
2022-09-20T13:25:20.440Z,97622.28
2022-09-20T13:28:32.576Z,97627.66
2022-09-20T13:31:35.939Z,97633.31
2022-09-20T13:34:38.801Z,97652.41
2022-09-20T13:37:51.167Z,97696.28
2022-09-20T13:41:02.367Z,97702.31
2022-09-20T13:44:05.404Z,97718.00
2022-09-20T13:47:25.668Z,97714.66
2022-09-20T13:50:31.852Z,97729.38
2022-09-20T13:53:43.255Z,97735.22
2022-09-20T13:56:46.466Z,97746.78
2022-09-20T13:59:50.266Z,97730.13
2022-09-20T14:02:54.717Z,97751.03
2022-09-20T14:06:00.920Z,97757.63
2022-09-20T14:09:11.028Z,97750.03
2022-09-20T14:12:15.360Z,97762.72
2022-09-20T14:15:18.310Z,97754.63
2022-09-20T14:18:23.389Z,97772.63
2022-09-20T14:21:28.332Z,97772.72
2022-09-20T14:24:35.638Z,97771.53
2022-09-20T14:27:38.907Z,97757.81
2022-09-20T14:30:41.700Z,97764.34
2022-09-20T14:33:51.730Z,97766.72
2022-09-20T14:37:06.452Z,97774.09
2022-09-20T14:40:22.602Z,97772.72
2022-09-20T14:43:31.466Z,97767.09
2022-09-20T14:46:36.732Z,97769.44
2022-09-20T14:49:43.951Z,97767.28
2022-09-20T14:52:46.711Z,97774.66
2022-09-20T14:56:08.790Z,97766.19
2022-09-20T14:59:24.688Z,97759.63
2022-09-20T15:02:28.094Z,97753.44
2022-09-20T15:05:31.079Z,97752.78
2022-09-20T15:08:36.707Z,97732.69
2022-09-20T15:11:41.770Z,97733.38
2022-09-20T15:14:44.679Z,97728.03
2022-09-20T15:17:48.849Z,97727.19
2022-09-20T15:20:52.263Z,97732.47
2022-09-20T15:23:55.306Z,97741.28
2022-09-20T15:26:59.442Z,97745.19
2022-09-20T15:30:02.278Z,97731.25
2022-09-20T15:33:05.058Z,97732.75
2022-09-20T15:36:08.952Z,97734.75
2022-09-20T15:39:12.290Z,97716.00
2022-09-20T15:42:16.762Z,97710.06
2022-09-20T15:45:21.209Z,97711.81
2022-09-20T15:48:26.629Z,97709.97
2022-09-20T15:51:30.724Z,97717.31
2022-09-20T15:54:33.504Z,97724.56
2022-09-20T15:57:38.739Z,97714.63
2022-09-20T16:00:42.393Z,97709.88
2022-09-20T16:03:47.364Z,97701.63
2022-09-20T16:06:51.309Z,97703.22
2022-09-20T16:09:54.875Z,97697.63
2022-09-20T16:12:59.059Z,97715.81
2022-09-20T16:16:02.891Z,97706.78
2022-09-20T16:19:21.302Z,97710.75
2022-09-20T16:22:24.319Z,97723.16
2022-09-20T16:25:27.243Z,97722.88
2022-09-20T16:28:31.572Z,97724.53
2022-09-20T16:31:39.852Z,97722.66
2022-09-20T16:34:42.802Z,97715.03
2022-09-20T16:37:45.767Z,97724.09
2022-09-20T16:40:51.523Z,97721.19
2022-09-20T16:43:56.520Z,97729.75
2022-09-20T16:46:59.532Z,97734.72
2022-09-20T16:50:02.738Z,97743.47
2022-09-20T16:53:05.615Z,97757.94
2022-09-20T16:56:08.368Z,97758.41
2022-09-20T16:59:14.071Z,97754.97
2022-09-20T17:02:17.273Z,97764.47
2022-09-20T17:05:20.028Z,97766.63
2022-09-20T17:08:22.952Z,97768.44
2022-09-20T17:11:27.688Z,97778.00
2022-09-20T17:14:32.129Z,97781.88
2022-09-20T17:17:35.207Z,97778.25
2022-09-20T17:20:38.546Z,97781.34
2022-09-20T17:23:42.137Z,97793.50
2022-09-20T17:26:46.534Z,97802.66
2022-09-20T17:29:50.869Z,97809.59
2022-09-20T17:32:53.912Z,97816.31
2022-09-20T17:35:58.917Z,97819.13
2022-09-20T17:39:04.599Z,97814.53
2022-09-20T17:42:08.184Z,97817.69
2022-09-20T17:45:12.781Z,97829.34
2022-09-20T17:48:16.238Z,97829.34
2022-09-20T17:51:20.709Z,97831.66
2022-09-20T17:54:24.771Z,97830.66
2022-09-20T17:57:27.675Z,97832.31
2022-09-20T18:00:31.936Z,97835.78
2022-09-20T18:03:38.828Z,97834.28
2022-09-20T18:06:45.405Z,97840.19
2022-09-20T18:09:48.075Z,97851.06
2022-09-20T18:12:51.122Z,97843.16
2022-09-20T18:15:55.611Z,97847.13
2022-09-20T18:18:59.863Z,97840.19
2022-09-20T18:22:03.365Z,97837.59
2022-09-20T18:25:06.892Z,97851.72
2022-09-20T18:28:09.682Z,97857.97
2022-09-20T18:31:14.020Z,97864.56
2022-09-20T18:34:19.110Z,97867.19
2022-09-20T18:37:22.054Z,97862.22
2022-09-20T18:40:25.022Z,97874.06
2022-09-20T18:43:30.053Z,97871.47
2022-09-20T18:46:37.793Z,97873.25
2022-09-20T18:49:40.843Z,97871.47
2022-09-20T18:52:43.704Z,97872.28
2022-09-20T18:55:47.212Z,97873.94
2022-09-20T18:58:51.042Z,97871.59
2022-09-20T19:02:13.618Z,97873.91
2022-09-20T19:05:28.260Z,97869.47
2022-09-20T19:08:37.148Z,97875.72
2022-09-20T19:11:44.867Z,97880.78
2022-09-20T19:15:04.408Z,97873.16
2022-09-20T19:18:23.591Z,97868.72
2022-09-20T19:21:32.432Z,97872.66
2022-09-20T19:24:51.072Z,97878.78
2022-09-20T19:27:54.168Z,97886.41
2022-09-20T19:30:58.306Z,97884.91
2022-09-20T19:34:08.204Z,97889.41
2022-09-20T19:37:21.686Z,97896.88
2022-09-20T19:40:32.947Z,97903.00
2022-09-20T19:43:56.896Z,97902.03
2022-09-20T19:47:14.926Z,97909.44
2022-09-20T19:50:29.569Z,97905.06
2022-09-20T19:53:33.204Z,97917.94
2022-09-20T19:56:47.328Z,97928.22
2022-09-20T19:59:51.618Z,97929.34
2022-09-20T20:02:55.274Z,97938.25
2022-09-20T20:06:08.125Z,97941.53
2022-09-20T20:09:19.907Z,97945.47
2022-09-20T20:12:31.388Z,97957.69
2022-09-20T20:15:41.699Z,97966.22
2022-09-20T20:19:07.067Z,97975.44
2022-09-20T20:22:28.497Z,97981.56
2022-09-20T20:25:42.347Z,97987.81
2022-09-20T20:28:45.046Z,97994.63
2022-09-20T20:31:47.803Z,98008.13
2022-09-20T20:34:50.827Z,98009.03
2022-09-20T20:37:55.064Z,98017.47
2022-09-20T20:41:04.737Z,98034.34
2022-09-20T20:44:07.789Z,98047.38
2022-09-20T20:47:11.330Z,98046.41
2022-09-20T20:50:14.571Z,98047.69
2022-09-20T20:53:18.766Z,98055.47
2022-09-20T20:56:23.467Z,98067.38
2022-09-20T20:59:26.198Z,98070.41
2022-09-20T21:02:29.230Z,98075.81
2022-09-20T21:05:32.330Z,98075.13
2022-09-20T21:08:49.250Z,98077.97
2022-09-20T21:11:52.925Z,98071.97
2022-09-20T21:14:58.510Z,98072.50
2022-09-20T21:18:11.588Z,98067.28
2022-09-20T21:21:23.036Z,98065.19
2022-09-20T21:24:29.688Z,98050.00
2022-09-20T21:27:37.243Z,98044.81
2022-09-20T21:30:42.727Z,98043.44
2022-09-20T21:33:50.200Z,98033.84
2022-09-20T21:37:02.716Z,98037.94
2022-09-20T21:40:11.571Z,98036.16
2022-09-20T21:43:24.141Z,98039.91
2022-09-20T21:46:31.213Z,98037.88
2022-09-20T21:49:38.364Z,98038.50
2022-09-20T21:52:49.256Z,98042.38
2022-09-20T21:56:01.909Z,98049.09
2022-09-20T21:59:08.202Z,98053.63
2022-09-20T22:02:15.782Z,98057.13
2022-09-20T22:05:26.747Z,98064.19
2022-09-20T22:08:31.346Z,98067.47
2022-09-20T22:11:42.395Z,98073.00
2022-09-20T22:14:49.597Z,98077.44
2022-09-20T22:17:54.853Z,98086.25
2022-09-20T22:21:06.609Z,98092.59
2022-09-20T22:24:13.212Z,98097.13
2022-09-20T22:27:23.252Z,98110.75
2022-09-20T22:30:29.862Z,98112.25
2022-09-20T22:33:37.903Z,98122.59
2022-09-20T22:36:44.655Z,98118.47
2022-09-20T22:39:48.534Z,98120.38
2022-09-20T22:42:54.583Z,98123.97
2022-09-20T22:46:03.722Z,98131.81
2022-09-20T22:49:07.543Z,98134.09
2022-09-20T22:52:13.104Z,98136.28
2022-09-20T22:55:26.616Z,98149.94
2022-09-20T22:58:32.933Z,98161.72
2022-09-20T23:01:37.974Z,98176.75
2022-09-20T23:04:42.506Z,98183.09
2022-09-20T23:07:52.454Z,98198.84
2022-09-20T23:11:07.889Z,98197.72
2022-09-20T23:14:18.887Z,98201.84
2022-09-20T23:17:30.123Z,98213.81
2022-09-20T23:20:36.231Z,98224.25
2022-09-20T23:23:43.345Z,98238.72
2022-09-20T23:26:47.058Z,98258.75
2022-09-20T23:29:51.685Z,98274.81
2022-09-20T23:32:56.498Z,98291.34
2022-09-20T23:36:00.555Z,98307.06
2022-09-20T23:39:06.163Z,98309.28
2022-09-20T23:42:10.587Z,98318.94
2022-09-20T23:45:16.538Z,98337.91
2022-09-20T23:48:21.494Z,98347.72
2022-09-20T23:51:26.562Z,98351.16
2022-09-20T23:54:33.477Z,98370.41
2022-09-20T23:57:38.619Z,98378.00
